This is the latest recevied weather packets stored in our database for station/object KC9DRE. If no packets are shown the sender has not sent any weather packets the latest 10 day(s).
| Time | Temp. | Humidity | Pressure | Rain* | Wind** | Luminosity | Snow |
|---|---|---|---|---|---|---|---|
| 1787768180 | 31.11° C | 51% | 1016.2 hPa | 0 mm | - | 801 W/m² | - |
| 1787767875 | 31.11° C | 55% | 1016.1 hPa | 0 mm | - | 784 W/m² | - |
| 1787767571 | 31.67° C | 49% | 1016.3 hPa | 0 mm | - | 227 W/m² | - |
| 1787767269 | 31.67° C | 50% | 1016.3 hPa | 0 mm | - | 845 W/m² | - |
| 1787766969 | 31.11° C | 53% | 1016.4 hPa | 0 mm | - | 617 W/m² | - |
| 1787766663 | 31.11° C | 52% | 1016.7 hPa | 0 mm | - | 337 W/m² | - |
| 1787766363 | 31.11° C | 56% | 1016.6 hPa | 0 mm | - | 702 W/m² | - |
| 1787766061 | 31.11° C | 55% | 1016.7 hPa | 0 mm | - | 519 W/m² | - |
| 1787765758 | 31.11° C | 52% | 1016.6 hPa | 0 mm | - | 686 W/m² | - |
| 1787765454 | 30.56° C | 56% | 1016.7 hPa | 0 mm | - | 491 W/m² | - |
| 1787765153 | 30° C | 56% | 1016.8 hPa | 0 mm | - | 619 W/m² | - |
| 1787764848 | 30° C | 55% | 1016.8 hPa | 0 mm | - | 345 W/m² | - |
| 1787764543 | 30° C | 55% | 1016.8 hPa | 0 mm | - | 480 W/m² | - |
| 1787764238 | 30.56° C | 54% | 1016.7 hPa | 0 mm | - | 510 W/m² | - |
| 1787763934 | 30.56° C | 53% | 1016.6 hPa | 0 mm | - | 449 W/m² | - |
| 1787763630 | 30° C | 59% | 1016.7 hPa | 0 mm | - | 810 W/m² | - |
| 1787763326 | 30° C | 57% | 1016.7 hPa | 0 mm | - | 504 W/m² | - |
| 1787763025 | 30° C | 56% | 1016.7 hPa | 0 mm | - | 565 W/m² | - |
| 1787762725 | 29.44° C | 59% | 1016.6 hPa | 0 mm | - | 710 W/m² | - |
| 1787762424 | 29.44° C | 57% | 1016.6 hPa | 0 mm | - | 603 W/m² | - |
| 1787762121 | 28.89° C | 59% | 1016.8 hPa | 0 mm | - | 468 W/m² | - |
| 1787761817 | 28.89° C | 58% | 1016.8 hPa | 0 mm | - | 431 W/m² | - |
| 1787761512 | 30° C | 55% | 1016.8 hPa | 0 mm | - | 535 W/m² | - |
| 1787761208 | 29.44° C | 58% | 1016.7 hPa | 0 mm | - | 749 W/m² | - |
| 1787760906 | 29.44° C | 58% | 1016.6 hPa | 0 mm | - | 544 W/m² | - |
* Rain latest hour (hover to see other rain measurements)
** Current wind speed in m/s (hover to see current wind gust speed)